createdAt,value
2022-12-08T00:01:22.452Z,6.60
2022-12-08T00:04:13.399Z,5.97
2022-12-08T00:07:28.858Z,6.65
2022-12-08T00:13:24.789Z,6.65
2022-12-08T00:16:40.223Z,7.18
2022-12-08T00:19:26.326Z,6.60
2022-12-08T00:22:25.508Z,6.85
2022-12-08T00:28:13.440Z,6.20
2022-12-08T00:39:36.625Z,6.38
2022-12-08T00:48:53.790Z,7.07
2022-12-08T00:52:15.031Z,7.75
2022-12-08T00:55:51.182Z,7.88
2022-12-08T00:59:40.788Z,6.97
2022-12-08T01:06:51.972Z,6.78
2022-12-08T01:19:08.084Z,7.10
2022-12-08T01:28:13.660Z,6.80
2022-12-08T01:31:07.577Z,7.05
2022-12-08T01:34:15.162Z,7.20
2022-12-08T01:37:16.971Z,6.75
2022-12-08T01:40:16.062Z,6.90
2022-12-08T01:43:12.929Z,6.32
2022-12-08T01:46:09.030Z,6.60
2022-12-08T01:49:30.950Z,5.90
2022-12-08T01:52:40.856Z,5.78
2022-12-08T01:55:42.659Z,6.32
2022-12-08T01:58:41.858Z,6.30
2022-12-08T02:04:40.894Z,6.05
2022-12-08T02:10:56.018Z,6.50
2022-12-08T02:13:57.795Z,6.65
2022-12-08T02:17:18.892Z,6.60
2022-12-08T02:20:36.520Z,6.20
2022-12-08T02:23:38.565Z,6.75
2022-12-08T02:27:05.144Z,5.97
2022-12-08T02:30:47.286Z,7.15
2022-12-08T02:33:55.251Z,6.95
2022-12-08T02:36:55.721Z,6.75
2022-12-08T02:40:01.982Z,6.60
2022-12-08T02:43:13.663Z,6.60
2022-12-08T02:46:18.074Z,6.80
2022-12-08T02:49:13.966Z,6.43
2022-12-08T02:52:30.551Z,6.40
2022-12-08T02:55:23.597Z,7.25
2022-12-08T02:58:23.817Z,6.15
2022-12-08T03:01:26.011Z,6.50
2022-12-08T03:04:34.004Z,7.35
2022-12-08T03:08:12.886Z,7.03
2022-12-08T03:11:11.344Z,6.68
2022-12-08T03:14:01.537Z,6.63
2022-12-08T03:16:55.122Z,7.20
2022-12-08T03:19:50.665Z,6.57
2022-12-08T03:22:45.612Z,6.88
2022-12-08T03:25:42.029Z,6.40
2022-12-08T03:28:28.967Z,7.07
2022-12-08T03:31:21.943Z,6.63
2022-12-08T03:34:17.847Z,6.85
2022-12-08T03:37:06.775Z,6.88
2022-12-08T03:40:07.215Z,6.63
2022-12-08T03:42:58.497Z,7.05
2022-12-08T03:45:47.828Z,6.63
2022-12-08T03:51:37.450Z,6.90
2022-12-08T03:54:27.678Z,6.75
2022-12-08T03:57:14.825Z,6.90
2022-12-08T04:00:10.984Z,7.28
2022-12-08T04:03:01.166Z,6.88
2022-12-08T04:05:48.181Z,6.45
2022-12-08T04:08:48.719Z,6.93
2022-12-08T04:11:40.575Z,6.82
2022-12-08T04:14:28.958Z,6.47
2022-12-08T04:17:18.615Z,6.17
2022-12-08T04:20:08.495Z,6.65
2022-12-08T04:22:55.442Z,6.82
2022-12-08T04:25:45.211Z,6.82
2022-12-08T04:28:35.465Z,7.07
2022-12-08T04:31:22.406Z,6.72
2022-12-08T04:34:15.248Z,7.10
2022-12-08T04:37:02.033Z,6.10
2022-12-08T04:39:48.865Z,7.22
2022-12-08T04:42:39.317Z,6.80
2022-12-08T04:45:32.583Z,6.40
2022-12-08T04:48:28.405Z,6.40
2022-12-08T04:51:20.936Z,6.68
2022-12-08T04:54:16.976Z,6.72
2022-12-08T04:57:09.499Z,6.50
2022-12-08T04:59:56.516Z,6.50
2022-12-08T05:02:44.338Z,6.57
2022-12-08T05:05:34.419Z,7.18
2022-12-08T05:08:36.992Z,6.35
2022-12-08T05:11:26.544Z,5.93
2022-12-08T05:14:21.210Z,6.30
2022-12-08T05:17:10.464Z,6.88
2022-12-08T05:22:50.822Z,6.20
2022-12-08T05:25:42.954Z,7.22
2022-12-08T05:28:43.907Z,7.30
2022-12-08T05:31:37.406Z,7.57
2022-12-08T05:34:28.610Z,6.30
2022-12-08T05:37:18.102Z,6.90
2022-12-08T05:40:06.200Z,6.85
2022-12-08T05:42:58.460Z,7.27
2022-12-08T05:45:45.434Z,7.38
2022-12-08T05:48:41.102Z,7.45
2022-12-08T05:51:30.449Z,7.28
2022-12-08T05:57:08.649Z,7.28
2022-12-08T05:59:59.640Z,7.32
2022-12-08T06:02:46.829Z,7.80
2022-12-08T06:05:35.315Z,7.35
2022-12-08T06:08:30.807Z,7.63
2022-12-08T06:11:30.020Z,7.80
2022-12-08T06:14:17.130Z,8.48
2022-12-08T06:17:04.016Z,7.68
2022-12-08T06:19:50.947Z,7.72
2022-12-08T06:22:39.586Z,8.20
2022-12-08T06:25:26.549Z,9.48
2022-12-08T06:28:14.710Z,9.30
2022-12-08T06:31:13.462Z,9.57
2022-12-08T06:34:00.337Z,9.57
2022-12-08T06:37:00.477Z,10.30
2022-12-08T06:39:50.207Z,9.68
2022-12-08T06:42:47.043Z,10.02
2022-12-08T06:45:37.000Z,9.95
2022-12-08T06:48:23.870Z,9.55
2022-12-08T06:51:18.536Z,8.93
2022-12-08T06:54:05.324Z,9.20
2022-12-08T06:56:52.186Z,9.63
2022-12-08T06:59:39.633Z,9.43
2022-12-08T07:02:26.444Z,10.38
2022-12-08T07:05:13.289Z,9.10
2022-12-08T07:08:08.099Z,8.98
2022-12-08T07:10:55.066Z,9.25
2022-12-08T07:13:41.815Z,9.02
2022-12-08T07:16:28.643Z,9.48
2022-12-08T07:19:15.463Z,9.45
2022-12-08T07:22:02.228Z,8.70
2022-12-08T07:24:49.037Z,8.65
2022-12-08T07:27:37.550Z,8.43
2022-12-08T07:30:24.326Z,7.88
2022-12-08T07:33:11.077Z,8.95
2022-12-08T07:36:02.773Z,8.23
2022-12-08T07:38:50.915Z,8.82
2022-12-08T07:41:37.724Z,8.98
2022-12-08T07:44:24.455Z,9.90
2022-12-08T07:47:11.236Z,8.93
2022-12-08T07:49:58.130Z,8.88
2022-12-08T07:52:45.009Z,8.82
2022-12-08T07:55:31.901Z,9.32
2022-12-08T07:58:18.689Z,8.50
2022-12-08T08:01:06.153Z,8.43
2022-12-08T08:03:54.298Z,9.40
2022-12-08T08:06:41.149Z,8.57
2022-12-08T08:09:27.921Z,8.48
2022-12-08T08:12:30.740Z,9.90
2022-12-08T08:15:19.225Z,8.45
2022-12-08T08:18:06.160Z,7.97
2022-12-08T08:20:52.919Z,8.13
2022-12-08T08:23:39.674Z,9.05
2022-12-08T08:26:27.313Z,8.25
2022-12-08T08:29:14.058Z,7.78
2022-12-08T08:32:00.826Z,8.38
2022-12-08T08:34:47.611Z,8.50
2022-12-08T08:37:34.534Z,8.13
2022-12-08T08:40:23.886Z,8.82
2022-12-08T08:46:23.041Z,8.32
2022-12-08T08:49:09.964Z,8.40
2022-12-08T08:51:56.745Z,8.45
2022-12-08T08:54:43.533Z,8.65
2022-12-08T08:57:32.681Z,8.80
2022-12-08T09:00:19.803Z,7.90
2022-12-08T09:03:06.714Z,7.82
2022-12-08T09:05:55.475Z,8.07
2022-12-08T09:08:43.018Z,8.25
2022-12-08T09:11:29.872Z,8.80
2022-12-08T09:14:16.676Z,7.53
2022-12-08T09:17:03.548Z,8.40
2022-12-08T09:19:50.376Z,8.52
2022-12-08T09:22:40.039Z,7.95
2022-12-08T09:25:26.826Z,7.88
2022-12-08T09:28:14.757Z,7.50
2022-12-08T09:31:01.889Z,8.43
2022-12-08T09:33:51.502Z,8.15
2022-12-08T09:36:38.518Z,8.73
2022-12-08T09:39:25.358Z,8.98
2022-12-08T09:42:12.205Z,9.75
2022-12-08T09:45:12.704Z,9.38
2022-12-08T09:48:02.402Z,8.82
2022-12-08T09:50:55.394Z,8.90
2022-12-08T09:53:45.910Z,8.73
2022-12-08T09:56:35.714Z,9.02
2022-12-08T09:59:29.300Z,9.75
2022-12-08T10:02:27.280Z,9.43
2022-12-08T10:05:15.213Z,10.25
2022-12-08T10:08:08.837Z,10.07
2022-12-08T10:11:00.064Z,10.60
2022-12-08T10:14:11.609Z,10.05
2022-12-08T10:26:31.617Z,10.98
2022-12-08T10:35:05.584Z,11.30
2022-12-08T10:43:13.174Z,10.60
2022-12-08T10:46:58.511Z,10.90
2022-12-08T10:50:10.983Z,10.93
2022-12-08T10:53:31.555Z,11.38
2022-12-08T10:56:41.292Z,12.20
2022-12-08T11:05:51.625Z,12.05
2022-12-08T12:03:49.348Z,11.30
2022-12-08T12:11:56.823Z,11.95
2022-12-08T12:23:17.743Z,11.75
2022-12-08T12:30:04.628Z,11.10
2022-12-08T13:02:44.514Z,11.30
2022-12-08T13:17:54.693Z,13.23
2022-12-08T13:21:13.933Z,12.80
2022-12-08T13:24:20.767Z,12.93
2022-12-08T13:27:13.537Z,14.32
2022-12-08T13:30:44.132Z,12.98
2022-12-08T13:37:30.314Z,12.27
2022-12-08T13:44:10.640Z,13.20
2022-12-08T13:55:25.905Z,12.88
2022-12-08T13:58:30.322Z,12.20
2022-12-08T14:02:01.256Z,12.23
2022-12-08T14:05:48.064Z,12.15
2022-12-08T14:09:02.596Z,11.98
2022-12-08T14:12:14.799Z,11.68
2022-12-08T14:15:09.374Z,11.40
2022-12-08T14:18:00.792Z,11.75
2022-12-08T14:21:21.357Z,11.90
2022-12-08T14:24:20.591Z,11.10
2022-12-08T14:27:16.431Z,11.27
2022-12-08T14:30:46.694Z,10.93
2022-12-08T14:33:56.496Z,11.02
2022-12-08T14:36:52.619Z,10.32
2022-12-08T14:39:43.698Z,10.77
2022-12-08T14:42:31.005Z,11.80
2022-12-08T14:45:20.205Z,11.20
2022-12-08T14:48:22.233Z,10.23
2022-12-08T14:51:28.504Z,11.38
2022-12-08T14:54:19.005Z,10.43
2022-12-08T14:57:11.499Z,11.63
2022-12-08T15:00:01.224Z,10.50
2022-12-08T15:02:48.408Z,10.07
2022-12-08T15:05:36.423Z,10.68
2022-12-08T15:08:53.229Z,9.65
2022-12-08T15:11:40.059Z,8.80
2022-12-08T15:14:37.369Z,9.80
2022-12-08T15:17:51.110Z,9.95
2022-12-08T15:20:45.079Z,9.70
2022-12-08T15:23:47.835Z,9.93
2022-12-08T15:26:41.052Z,10.05
2022-12-08T15:29:30.728Z,9.45
2022-12-08T15:32:22.665Z,9.88
2022-12-08T15:35:25.571Z,9.75
2022-12-08T15:38:29.199Z,9.10
2022-12-08T15:41:21.093Z,9.68
2022-12-08T15:44:08.003Z,9.77
2022-12-08T15:46:55.535Z,9.23
2022-12-08T15:49:46.149Z,10.15
2022-12-08T15:52:36.823Z,9.30
2022-12-08T15:55:23.675Z,9.85
2022-12-08T16:01:33.000Z,11.63
2022-12-08T16:07:31.728Z,11.15
2022-12-08T16:10:45.543Z,10.75
2022-12-08T16:14:15.569Z,10.13
2022-12-08T16:17:03.544Z,11.15
2022-12-08T16:20:00.218Z,10.82
2022-12-08T16:23:08.023Z,10.35
2022-12-08T16:29:18.003Z,10.45
2022-12-08T16:32:19.859Z,11.30
2022-12-08T16:35:07.289Z,10.55
2022-12-08T16:37:54.450Z,10.20
2022-12-08T16:41:03.281Z,11.50
2022-12-08T16:43:51.246Z,11.77
2022-12-08T16:46:44.064Z,10.77
2022-12-08T16:49:39.338Z,11.20
2022-12-08T16:52:31.010Z,10.88
2022-12-08T16:55:19.370Z,11.38
2022-12-08T16:58:14.747Z,10.53
2022-12-08T17:01:04.732Z,10.55
2022-12-08T17:04:22.978Z,10.52
2022-12-08T17:09:55.534Z,10.52
2022-12-08T17:12:48.076Z,10.82
2022-12-08T17:15:35.178Z,10.60
2022-12-08T17:18:29.143Z,11.20
2022-12-08T17:21:17.511Z,10.60
2022-12-08T17:24:05.051Z,10.87
2022-12-08T17:26:54.280Z,11.93
2022-12-08T17:32:35.532Z,11.18
2022-12-08T17:35:22.470Z,11.05
2022-12-08T17:38:15.733Z,10.27
2022-12-08T17:41:06.666Z,10.73
2022-12-08T17:43:55.331Z,11.55
2022-12-08T17:46:46.368Z,10.68
2022-12-08T17:49:39.512Z,11.27
2022-12-08T17:52:27.362Z,10.95
2022-12-08T17:55:16.954Z,9.93
2022-12-08T17:58:10.916Z,10.32
2022-12-08T18:01:07.603Z,10.50
2022-12-08T18:04:03.042Z,10.25
2022-12-08T18:07:02.895Z,10.32
2022-12-08T18:10:28.270Z,10.75
2022-12-08T18:13:34.472Z,9.90
2022-12-08T18:16:29.335Z,9.77
2022-12-08T18:19:26.521Z,10.93
2022-12-08T18:22:45.112Z,10.93
2022-12-08T18:26:38.503Z,11.38
2022-12-08T18:29:15.842Z,10.65
2022-12-08T18:32:09.029Z,11.73
2022-12-08T18:35:06.157Z,10.43
2022-12-08T18:38:06.257Z,10.57
2022-12-08T18:41:04.726Z,9.82
2022-12-08T18:44:12.714Z,10.18
2022-12-08T18:51:43.019Z,9.65
2022-12-08T18:54:22.102Z,10.40
2022-12-08T18:57:45.728Z,10.68
2022-12-08T19:01:18.503Z,10.38
2022-12-08T19:04:54.197Z,9.80
2022-12-08T19:08:07.265Z,9.93
2022-12-08T19:11:46.076Z,10.52
2022-12-08T19:19:27.044Z,9.20
2022-12-08T19:22:02.275Z,10.98
2022-12-08T19:25:30.978Z,9.50
2022-12-08T19:28:42.457Z,10.23
2022-12-08T19:31:51.386Z,10.40
2022-12-08T19:35:41.153Z,10.27
2022-12-08T19:42:44.384Z,10.60
2022-12-08T19:45:57.448Z,9.52
2022-12-08T19:48:48.061Z,9.60
2022-12-08T19:55:01.801Z,10.90
2022-12-08T19:58:03.967Z,11.75
2022-12-08T20:01:26.435Z,10.55
2022-12-08T20:04:28.158Z,10.27
2022-12-08T20:10:59.261Z,10.65
2022-12-08T20:14:02.386Z,10.50
2022-12-08T20:17:31.999Z,10.77
2022-12-08T20:20:42.038Z,12.40
2022-12-08T20:23:39.973Z,10.07
2022-12-08T20:26:45.800Z,10.65
2022-12-08T20:30:17.552Z,10.00
2022-12-08T20:33:38.203Z,10.45
2022-12-08T20:40:06.871Z,10.45
2022-12-08T20:42:57.847Z,10.05
2022-12-08T20:57:35.871Z,9.05
2022-12-08T21:00:48.093Z,9.27
2022-12-08T21:07:55.510Z,8.88
2022-12-08T21:10:56.412Z,10.35
2022-12-08T21:14:39.545Z,10.15
2022-12-08T21:17:31.130Z,9.45
2022-12-08T21:20:32.996Z,9.55
2022-12-08T21:23:45.030Z,9.88
2022-12-08T21:26:46.285Z,9.57
2022-12-08T21:29:50.942Z,9.25
2022-12-08T21:32:56.006Z,9.55
2022-12-08T21:35:56.563Z,9.73
2022-12-08T21:38:48.076Z,9.43
2022-12-08T21:42:01.324Z,10.23
2022-12-08T21:44:56.028Z,9.63
2022-12-08T21:47:50.656Z,9.80
2022-12-08T21:51:19.423Z,9.70
2022-12-08T21:54:30.247Z,9.75
2022-12-08T21:57:26.012Z,10.00
2022-12-08T22:00:22.057Z,9.48
2022-12-08T22:03:18.362Z,10.35
2022-12-08T22:06:38.618Z,9.18
2022-12-08T22:09:40.856Z,10.15
2022-12-08T22:12:43.556Z,9.70
2022-12-08T22:15:35.449Z,10.10
2022-12-08T22:18:34.948Z,10.13
2022-12-08T22:21:30.570Z,9.27
2022-12-08T22:24:37.852Z,9.80
2022-12-08T22:27:33.171Z,10.40
2022-12-08T22:30:37.197Z,9.98
2022-12-08T22:34:00.247Z,9.98
2022-12-08T22:36:51.481Z,10.27
2022-12-08T22:39:45.443Z,9.88
2022-12-08T22:42:34.984Z,9.70
2022-12-08T22:45:39.062Z,9.77
2022-12-08T22:48:36.762Z,10.27
2022-12-08T22:51:31.508Z,9.65
2022-12-08T22:54:27.205Z,9.70
2022-12-08T22:57:19.664Z,10.02
2022-12-08T23:00:13.845Z,10.48
2022-12-08T23:03:10.001Z,9.63
2022-12-08T23:06:14.866Z,10.02
2022-12-08T23:09:19.656Z,10.95
2022-12-08T23:12:12.681Z,10.68
2022-12-08T23:15:27.249Z,10.52
2022-12-08T23:18:29.059Z,11.27
2022-12-08T23:21:33.950Z,10.10
2022-12-08T23:24:24.247Z,10.32
2022-12-08T23:27:19.575Z,10.80
2022-12-08T23:30:11.208Z,9.63
2022-12-08T23:33:10.258Z,9.93
2022-12-08T23:36:03.931Z,11.00
2022-12-08T23:38:52.333Z,10.57
2022-12-08T23:41:41.858Z,10.47
2022-12-08T23:44:28.801Z,10.45
2022-12-08T23:47:20.161Z,10.30
2022-12-08T23:50:14.019Z,10.13
2022-12-08T23:53:05.355Z,11.02
2022-12-08T23:56:14.393Z,10.63
2022-12-08T23:59:02.794Z,10.73
